createdAt,value
2017-06-12T00:00:38.084Z,23.75
2017-06-12T00:01:48.343Z,23.78
2017-06-12T00:02:58.610Z,23.75
2017-06-12T00:04:07.928Z,23.79
2017-06-12T00:05:17.563Z,23.8
2017-06-12T00:06:27.198Z,23.78
2017-06-12T00:07:36.834Z,23.65
2017-06-12T00:08:47.104Z,23.85
2017-06-12T00:09:57.517Z,23.75
2017-06-12T00:11:07.783Z,23.75
2017-06-12T00:12:18.051Z,23.63
2017-06-12T00:13:28.326Z,23.79
2017-06-12T00:14:38.580Z,23.84
2017-06-12T00:15:48.840Z,23.79
2017-06-12T00:16:59.100Z,23.78
2017-06-12T00:18:09.052Z,23.8
2017-06-12T00:19:19.326Z,23.72
2017-06-12T00:20:28.963Z,23.73
2017-06-12T00:21:39.228Z,23.73
2017-06-12T00:22:49.492Z,23.76
2017-06-12T00:23:59.753Z,23.78
2017-06-12T00:25:10.023Z,23.65
2017-06-12T00:26:20.293Z,23.76
2017-06-12T00:27:29.609Z,23.79
2017-06-12T00:28:39.553Z,23.78
2017-06-12T00:29:49.818Z,23.84
2017-06-12T00:31:00.075Z,23.63
2017-06-12T00:32:10.336Z,23.72
2017-06-12T00:33:20.136Z,23.8
2017-06-12T00:34:30.396Z,23.76
2017-06-12T00:35:40.029Z,23.75
2017-06-12T00:36:50.288Z,23.73
2017-06-12T00:38:00.556Z,23.76
2017-06-12T00:39:10.510Z,23.78
2017-06-12T00:40:20.770Z,23.8
2017-06-12T00:41:30.734Z,23.76
2017-06-12T00:42:40.687Z,23.76
2017-06-12T00:43:50.323Z,23.78
2017-06-12T00:45:00.418Z,23.76
2017-06-12T00:46:10.686Z,23.7
2017-06-12T00:47:20.636Z,23.75
2017-06-12T00:48:30.603Z,23.73
2017-06-12T00:49:40.870Z,23.7
2017-06-12T00:50:51.132Z,23.69
2017-06-12T00:52:01.394Z,23.73
2017-06-12T00:53:11.346Z,23.76
2017-06-12T00:54:21.610Z,23.68
2017-06-12T00:55:31.559Z,23.75
2017-06-12T00:56:41.503Z,23.69
2017-06-12T00:57:51.770Z,23.69
2017-06-12T00:59:01.403Z,23.69
2017-06-12T01:00:11.369Z,23.73
2017-06-12T01:01:21.318Z,23.75
2017-06-12T01:02:31.764Z,23.69
2017-06-12T01:03:41.716Z,23.76
2017-06-12T01:04:51.672Z,23.73
2017-06-12T01:06:01.936Z,23.7
2017-06-12T01:07:12.211Z,23.75
2017-06-12T01:08:21.844Z,23.72
2017-06-12T01:09:31.483Z,23.65
2017-06-12T01:10:41.430Z,23.72
2017-06-12T01:11:51.724Z,23.7
2017-06-12T01:13:01.985Z,23.7
2017-06-12T01:14:11.941Z,23.69
2017-06-12T01:15:22.205Z,23.61
2017-06-12T01:16:32.471Z,23.58
2017-06-12T01:17:42.438Z,23.68
2017-06-12T01:18:52.532Z,23.68
2017-06-12T01:20:02.803Z,23.72
2017-06-12T01:21:12.136Z,23.7
2017-06-12T01:22:22.400Z,23.83
2017-06-12T01:23:32.034Z,23.83
2017-06-12T01:24:41.990Z,23.76
2017-06-12T01:25:51.941Z,23.75
2017-06-12T01:27:01.893Z,23.83
2017-06-12T01:28:12.160Z,23.84
2017-06-12T01:29:22.423Z,23.8
2017-06-12T01:30:32.692Z,23.75
2017-06-12T01:31:42.645Z,23.8
2017-06-12T01:32:52.935Z,23.73
2017-06-12T01:34:02.566Z,23.8
2017-06-12T01:35:12.511Z,23.75
2017-06-12T01:36:22.296Z,23.75
2017-06-12T01:37:32.241Z,23.76
2017-06-12T01:38:42.504Z,23.69
2017-06-12T01:39:52.474Z,23.73
2017-06-12T01:41:02.737Z,23.76
2017-06-12T01:42:12.680Z,23.76
2017-06-12T01:43:22.956Z,23.75
2017-06-12T01:44:33.215Z,23.75
2017-06-12T01:45:43.484Z,23.78
2017-06-12T01:46:53.755Z,23.73
2017-06-12T01:48:03.854Z,23.73
2017-06-12T01:49:13.491Z,23.69
2017-06-12T01:50:23.752Z,23.75
2017-06-12T01:51:33.388Z,23.69
2017-06-12T01:52:43.660Z,23.7
2017-06-12T01:53:53.599Z,23.72
2017-06-12T01:55:03.232Z,23.76
2017-06-12T01:56:13.491Z,23.66
2017-06-12T01:57:23.127Z,23.69
2017-06-12T01:58:33.394Z,23.65
2017-06-12T01:59:43.654Z,23.66
2017-06-12T02:00:53.605Z,23.61
2017-06-12T02:02:03.555Z,23.63
2017-06-12T02:03:13.824Z,23.51
2017-06-12T02:04:24.090Z,23.57
2017-06-12T02:05:34.190Z,23.63
2017-06-12T02:06:43.822Z,23.55
2017-06-12T02:07:53.771Z,23.65
2017-06-12T02:09:04.030Z,23.61
2017-06-12T02:10:14.298Z,23.61
2017-06-12T02:11:24.250Z,23.61
2017-06-12T02:12:34.510Z,23.68
2017-06-12T02:13:44.139Z,23.61
2017-06-12T02:14:54.402Z,23.57
2017-06-12T02:16:04.359Z,23.54
2017-06-12T02:17:14.307Z,23.57
2017-06-12T02:18:24.258Z,23.57
2017-06-12T02:19:34.208Z,23.51
2017-06-12T02:20:44.469Z,23.48
2017-06-12T02:21:54.418Z,23.46
2017-06-12T02:23:04.832Z,23.53
2017-06-12T02:24:15.101Z,23.51
2017-06-12T02:25:25.044Z,23.51
2017-06-12T02:26:35.309Z,23.43
2017-06-12T02:27:45.262Z,23.5
2017-06-12T02:28:54.892Z,23.53
2017-06-12T02:30:05.153Z,23.54
2017-06-12T02:31:15.410Z,23.58
2017-06-12T02:32:25.683Z,23.54
2017-06-12T02:33:35.947Z,23.48
2017-06-12T02:34:46.247Z,23.46
2017-06-12T02:35:56.517Z,23.47
2017-06-12T02:37:06.469Z,23.54
2017-06-12T02:38:16.733Z,23.58
2017-06-12T02:39:27.012Z,23.61
2017-06-12T02:40:37.110Z,23.69
2017-06-12T02:41:47.375Z,23.68
2017-06-12T02:42:57.643Z,23.73
2017-06-12T02:44:07.934Z,23.75
2017-06-12T02:45:17.892Z,23.6
2017-06-12T02:46:27.841Z,23.75
2017-06-12T02:47:37.791Z,23.78
2017-06-12T02:48:47.109Z,23.84
2017-06-12T02:49:57.370Z,23.75
2017-06-12T02:51:07.007Z,23.79
2017-06-12T02:52:16.955Z,23.78
2017-06-12T02:53:27.217Z,23.79
2017-06-12T02:54:37.172Z,23.76
2017-06-12T02:55:46.810Z,23.75
2017-06-12T02:56:57.072Z,23.76
2017-06-12T02:58:07.334Z,23.8
2017-06-12T02:59:17.599Z,23.76
2017-06-12T03:00:27.545Z,23.78
2017-06-12T03:01:37.492Z,23.76
2017-06-12T03:02:46.499Z,23.83
2017-06-12T03:03:56.918Z,23.79
2017-06-12T03:05:06.870Z,23.79
2017-06-12T03:06:16.834Z,23.84
2017-06-12T03:07:27.096Z,23.93
2017-06-12T03:08:37.038Z,23.76
2017-06-12T03:09:47.300Z,23.85
2017-06-12T03:10:57.564Z,23.78
2017-06-12T03:12:07.511Z,23.8
2017-06-12T03:13:17.465Z,23.9
2017-06-12T03:14:27.727Z,23.87
2017-06-12T03:15:37.679Z,23.91
2017-06-12T03:16:47.941Z,23.84
2017-06-12T03:17:57.884Z,23.78
2017-06-12T03:19:07.833Z,23.85
2017-06-12T03:20:17.786Z,23.91
2017-06-12T03:21:27.892Z,23.91
2017-06-12T03:22:37.846Z,23.94
2017-06-12T03:23:48.112Z,23.94
2017-06-12T03:24:58.384Z,23.9
2017-06-12T03:26:08.333Z,23.93
2017-06-12T03:27:18.285Z,23.79
2017-06-12T03:28:27.946Z,23.88
2017-06-12T03:29:38.212Z,23.94
2017-06-12T03:30:48.164Z,23.85
2017-06-12T03:31:57.801Z,23.93
2017-06-12T03:33:08.068Z,23.88
2017-06-12T03:34:18.017Z,23.78
2017-06-12T03:35:28.288Z,23.91
2017-06-12T03:36:38.574Z,23.84
2017-06-12T03:37:48.212Z,23.91
2017-06-12T03:38:57.845Z,23.93
2017-06-12T03:40:07.168Z,23.9
2017-06-12T03:41:17.117Z,23.84
2017-06-12T03:42:27.381Z,23.9
2017-06-12T03:43:37.327Z,23.95
2017-06-12T03:44:47.745Z,23.91
2017-06-12T03:45:57.691Z,23.94
2017-06-12T03:47:07.950Z,23.83
2017-06-12T03:48:18.211Z,23.9
2017-06-12T03:49:28.163Z,23.91
2017-06-12T03:50:38.111Z,23.94
2017-06-12T03:51:48.062Z,23.93
2017-06-12T03:52:58.327Z,23.87
2017-06-12T03:54:08.271Z,23.88
2017-06-12T03:55:18.221Z,23.9
2017-06-12T03:56:28.635Z,23.93
2017-06-12T03:57:38.889Z,23.88
2017-06-12T03:58:49.151Z,23.87
2017-06-12T03:59:58.789Z,23.84
2017-06-12T04:01:08.736Z,23.93
2017-06-12T04:02:18.371Z,23.91
2017-06-12T04:03:28.320Z,23.88
2017-06-12T04:04:38.586Z,23.93
2017-06-12T04:05:49.108Z,23.91
2017-06-12T04:06:59.057Z,23.9
2017-06-12T04:08:08.842Z,23.93
2017-06-12T04:09:18.798Z,23.9
2017-06-12T04:10:28.752Z,23.88
2017-06-12T04:11:39.016Z,23.9
2017-06-12T04:12:48.966Z,23.88
2017-06-12T04:13:59.230Z,23.9
2017-06-12T04:15:08.863Z,23.87
2017-06-12T04:16:18.813Z,23.94
2017-06-12T04:17:28.769Z,23.88
2017-06-12T04:18:39.036Z,23.91
2017-06-12T04:19:49.135Z,23.98
2017-06-12T04:20:59.398Z,23.91
2017-06-12T04:22:09.351Z,23.93
2017-06-12T04:23:19.620Z,23.9
2017-06-12T04:24:29.565Z,23.9
2017-06-12T04:25:39.515Z,23.93
2017-06-12T04:26:49.156Z,23.88
2017-06-12T04:27:59.420Z,23.93
2017-06-12T04:29:09.693Z,23.98
2017-06-12T04:30:19.961Z,23.94
2017-06-12T04:31:29.281Z,23.91
2017-06-12T04:32:39.547Z,23.93
2017-06-12T04:33:49.804Z,23.9
2017-06-12T04:35:00.069Z,23.9
2017-06-12T04:36:10.025Z,23.91
2017-06-12T04:37:20.128Z,23.88
2017-06-12T04:38:29.770Z,23.91
2017-06-12T04:39:39.719Z,23.88
2017-06-12T04:40:49.672Z,23.9
2017-06-12T04:41:59.617Z,23.88
2017-06-12T04:43:09.249Z,23.91
2017-06-12T04:44:19.517Z,23.91
2017-06-12T04:45:29.465Z,23.97
2017-06-12T04:46:39.729Z,23.9
2017-06-12T04:47:49.680Z,23.91
2017-06-12T04:49:00.094Z,23.91
2017-06-12T04:50:09.730Z,23.95
2017-06-12T04:51:19.993Z,23.93
2017-06-12T04:52:29.944Z,23.94
2017-06-12T04:53:39.575Z,23.94
2017-06-12T04:54:49.526Z,23.93
2017-06-12T04:55:59.477Z,23.93
2017-06-12T04:57:09.746Z,23.93
2017-06-12T04:58:19.382Z,23.93
2017-06-12T04:59:29.643Z,23.95
2017-06-12T05:00:39.595Z,23.88
2017-06-12T05:01:49.235Z,23.87
2017-06-12T05:02:59.506Z,23.88
2017-06-12T05:04:09.764Z,23.87
2017-06-12T05:05:19.411Z,23.93
2017-06-12T05:06:29.511Z,23.95
2017-06-12T05:07:39.168Z,23.9
2017-06-12T05:08:49.427Z,23.97
2017-06-12T05:09:59.060Z,23.94
2017-06-12T05:11:09.029Z,23.94
2017-06-12T05:12:19.296Z,23.97
2017-06-12T05:13:29.565Z,23.98
2017-06-12T05:14:39.517Z,23.91
2017-06-12T05:15:49.775Z,23.87
2017-06-12T05:16:59.722Z,23.88
2017-06-12T05:18:09.678Z,23.9
2017-06-12T05:19:19.936Z,23.91
2017-06-12T05:20:30.228Z,23.83
2017-06-12T05:21:40.171Z,23.72
2017-06-12T05:22:49.805Z,23.78
2017-06-12T05:23:59.586Z,23.76
2017-06-12T05:25:09.533Z,23.65
2017-06-12T05:26:19.484Z,23.73
2017-06-12T05:27:29.429Z,23.83
2017-06-12T05:28:39.383Z,23.73
2017-06-12T05:29:48.697Z,23.75
2017-06-12T05:30:58.328Z,23.72
2017-06-12T05:32:08.599Z,23.69
2017-06-12T05:33:18.572Z,23.68
2017-06-12T05:34:28.527Z,23.72
2017-06-12T05:35:38.946Z,23.73
2017-06-12T05:36:49.210Z,23.73
2017-06-12T05:37:58.840Z,23.73
2017-06-12T05:39:08.475Z,23.78
2017-06-12T05:40:18.423Z,23.7
2017-06-12T05:41:27.752Z,23.75
2017-06-12T05:42:38.012Z,23.76
2017-06-12T05:43:47.957Z,23.7
2017-06-12T05:44:57.590Z,23.68
2017-06-12T05:46:07.226Z,23.73
2017-06-12T05:47:17.645Z,23.7
2017-06-12T05:48:27.902Z,23.57
2017-06-12T05:49:37.534Z,23.6
2017-06-12T05:50:47.170Z,23.58
2017-06-12T05:51:56.809Z,23.69
2017-06-12T05:53:06.759Z,23.58
2017-06-12T05:54:17.033Z,23.69
2017-06-12T05:55:27.296Z,23.65
2017-06-12T05:56:37.562Z,23.61
2017-06-12T05:57:47.515Z,23.65
2017-06-12T05:58:57.923Z,23.61
2017-06-12T06:00:08.184Z,23.61
2017-06-12T06:01:18.460Z,23.68
2017-06-12T06:02:28.408Z,23.79
2017-06-12T06:03:38.358Z,23.78
2017-06-12T06:04:47.994Z,23.83
2017-06-12T06:05:58.251Z,23.69
2017-06-12T06:07:08.518Z,23.87
2017-06-12T06:08:18.782Z,23.84
2017-06-12T06:09:28.418Z,23.9
2017-06-12T06:10:38.829Z,23.76
2017-06-12T06:11:49.094Z,23.79
2017-06-12T06:12:59.044Z,23.79
2017-06-12T06:14:08.994Z,23.78
2017-06-12T06:15:18.942Z,23.78
2017-06-12T06:16:29.206Z,23.75
2017-06-12T06:17:39.162Z,23.78
2017-06-12T06:18:49.114Z,23.79
2017-06-12T06:19:58.751Z,23.83
2017-06-12T06:21:09.068Z,23.84
2017-06-12T06:22:18.851Z,23.78
2017-06-12T06:23:28.807Z,23.94
2017-06-12T06:24:38.464Z,23.93
2017-06-12T06:25:48.427Z,23.88
2017-06-12T06:26:58.376Z,23.78
2017-06-12T06:28:08.012Z,23.91
2017-06-12T06:29:17.956Z,23.9
2017-06-12T06:30:27.904Z,23.9
2017-06-12T06:31:37.848Z,23.91
2017-06-12T06:32:47.479Z,23.93
2017-06-12T06:33:57.111Z,23.88
2017-06-12T06:35:07.380Z,23.9
2017-06-12T06:36:17.644Z,23.91
2017-06-12T06:37:27.589Z,23.88
2017-06-12T06:38:37.227Z,23.94
2017-06-12T06:39:47.177Z,23.9
2017-06-12T06:40:57.456Z,23.88
2017-06-12T06:42:07.091Z,23.9
2017-06-12T06:43:17.351Z,23.98
2017-06-12T06:44:27.306Z,23.93
2017-06-12T06:45:37.263Z,23.88
2017-06-12T06:46:47.531Z,23.94
2017-06-12T06:47:57.482Z,23.91
2017-06-12T06:49:07.110Z,23.93
2017-06-12T06:50:17.057Z,23.94
2017-06-12T06:51:27.472Z,23.93
2017-06-12T06:52:37.739Z,23.98
2017-06-12T06:53:47.684Z,23.97
2017-06-12T06:54:57.953Z,23.93
2017-06-12T06:56:07.943Z,23.97
2017-06-12T06:57:17.894Z,23.97
2017-06-12T06:58:28.183Z,23.9
2017-06-12T06:59:38.450Z,24.03
2017-06-12T07:00:48.399Z,24.02
2017-06-12T07:01:58.353Z,23.97
2017-06-12T07:03:08.767Z,23.95
2017-06-12T07:04:18.402Z,24.06
2017-06-12T07:05:28.685Z,24.03
2017-06-12T07:06:38.634Z,24.03
2017-06-12T07:07:48.901Z,24.02
2017-06-12T07:08:59.162Z,24.03
2017-06-12T07:10:09.104Z,24.1
2017-06-12T07:11:18.731Z,24.06
2017-06-12T07:12:28.680Z,24
2017-06-12T07:13:38.624Z,23.93
2017-06-12T07:14:48.720Z,24
2017-06-12T07:15:58.688Z,23.98
2017-06-12T07:17:08.327Z,23.98
2017-06-12T07:18:17.959Z,24.08
2017-06-12T07:19:27.907Z,24.08
2017-06-12T07:20:37.858Z,24.1
2017-06-12T07:21:48.124Z,24.06
2017-06-12T07:22:58.393Z,24.06
2017-06-12T07:24:08.335Z,24.05
2017-06-12T07:25:18.290Z,24.08
2017-06-12T07:26:28.552Z,24.1
2017-06-12T07:27:38.821Z,24.09
2017-06-12T07:28:49.100Z,24.1
2017-06-12T07:29:59.049Z,24.08
2017-06-12T07:31:08.998Z,24.12
2017-06-12T07:32:19.407Z,24.06
2017-06-12T07:33:29.360Z,24.08
2017-06-12T07:34:39.310Z,24.1
2017-06-12T07:35:49.258Z,24.13
2017-06-12T07:36:59.204Z,24.09
2017-06-12T07:38:08.840Z,24.16
2017-06-12T07:39:19.104Z,24.09
2017-06-12T07:40:29.053Z,24.05
2017-06-12T07:41:38.999Z,24.12
2017-06-12T07:42:49.267Z,24.12
2017-06-12T07:43:59.689Z,24.06
2017-06-12T07:45:09.325Z,24.09
2017-06-12T07:46:18.656Z,24.06
2017-06-12T07:47:28.920Z,24.08
2017-06-12T07:48:39.185Z,24.08
2017-06-12T07:49:49.141Z,24.13
2017-06-12T07:50:59.402Z,24.1
2017-06-12T07:52:09.671Z,24.13
2017-06-12T07:53:19.616Z,24.16
2017-06-12T07:54:29.274Z,24.2
2017-06-12T07:55:39.692Z,24.18
2017-06-12T07:56:49.956Z,24.18
2017-06-12T07:57:59.904Z,24.13
2017-06-12T07:59:09.858Z,24.15
2017-06-12T08:00:20.131Z,24.15
2017-06-12T08:01:29.766Z,24.15
2017-06-12T08:02:40.031Z,24.18
2017-06-12T08:03:50.292Z,24.13
2017-06-12T08:05:00.242Z,24.18
2017-06-12T08:06:09.871Z,24.16
2017-06-12T08:07:20.125Z,24.15
2017-06-12T08:08:30.384Z,24.15
2017-06-12T08:09:40.332Z,24.16
2017-06-12T08:10:49.650Z,24.1
2017-06-12T08:11:59.905Z,24.22
2017-06-12T08:13:10.160Z,24.16
2017-06-12T08:14:19.798Z,24.18
2017-06-12T08:15:29.434Z,24.16
2017-06-12T08:16:39.069Z,24.15
2017-06-12T08:17:49.015Z,24.21
2017-06-12T08:18:58.651Z,24.09
2017-06-12T08:20:08.599Z,24.13
2017-06-12T08:21:17.917Z,24.16
2017-06-12T08:22:27.864Z,24.22
2017-06-12T08:23:37.509Z,24.21
2017-06-12T08:24:47.777Z,24.18
2017-06-12T08:25:58.043Z,24.2
2017-06-12T08:27:07.676Z,24.18
2017-06-12T08:28:17.627Z,24.15
2017-06-12T08:29:28.035Z,24.15
2017-06-12T08:30:38.302Z,24.22
2017-06-12T08:31:48.564Z,24.16
2017-06-12T08:32:58.198Z,24.15
2017-06-12T08:34:07.829Z,24.18
2017-06-12T08:35:18.094Z,24.09
2017-06-12T08:36:27.728Z,24.12
2017-06-12T08:37:37.674Z,24.15
2017-06-12T08:38:47.337Z,24.15
2017-06-12T08:39:57.601Z,24.15
2017-06-12T08:41:07.586Z,24.16
2017-06-12T08:42:17.854Z,24.2
2017-06-12T08:43:28.117Z,24.12
2017-06-12T08:44:38.383Z,24.2
2017-06-12T08:45:48.331Z,24.12
2017-06-12T08:46:58.115Z,24.15
2017-06-12T08:48:08.383Z,24.21
2017-06-12T08:49:18.645Z,24.15
2017-06-12T08:50:28.596Z,24.16
2017-06-12T08:51:38.860Z,24.2
2017-06-12T08:52:48.820Z,24.18
2017-06-12T08:53:58.768Z,24.09
2017-06-12T08:55:08.718Z,24.2
2017-06-12T08:56:18.982Z,24.16
2017-06-12T08:57:29.249Z,24.13
2017-06-12T08:58:38.917Z,24.15
2017-06-12T08:59:48.553Z,24.22
2017-06-12T09:00:58.508Z,24.18
2017-06-12T09:02:08.469Z,24.09
2017-06-12T09:03:18.423Z,24.15
2017-06-12T09:04:27.896Z,24.18
2017-06-12T09:05:37.846Z,24.18
2017-06-12T09:06:48.102Z,24.22
2017-06-12T09:07:58.048Z,24.15
2017-06-12T09:09:07.373Z,24.18
2017-06-12T09:10:17.636Z,24.12
2017-06-12T09:11:27.898Z,24.16
2017-06-12T09:12:38.161Z,24.16
2017-06-12T09:13:48.418Z,24.15
2017-06-12T09:14:58.684Z,24.2
2017-06-12T09:16:08.786Z,24.18
2017-06-12T09:17:19.045Z,24.16
2017-06-12T09:18:29.006Z,24.16
2017-06-12T09:19:38.331Z,24.13
2017-06-12T09:20:47.958Z,24.15
2017-06-12T09:21:57.907Z,24.15
2017-06-12T09:23:07.851Z,24.16
2017-06-12T09:24:17.798Z,24.21
2017-06-12T09:25:27.741Z,24.12
2017-06-12T09:26:37.379Z,24.13
2017-06-12T09:27:47.643Z,24.13
2017-06-12T09:28:57.626Z,24.13
2017-06-12T09:30:07.577Z,24.15
2017-06-12T09:31:17.528Z,24.16
2017-06-12T09:32:27.480Z,24.18
2017-06-12T09:33:37.891Z,24.16
2017-06-12T09:34:47.840Z,24.13
2017-06-12T09:35:58.104Z,24.2
2017-06-12T09:37:08.367Z,24.15
2017-06-12T09:38:18.620Z,24.13
2017-06-12T09:39:28.563Z,24.15
2017-06-12T09:40:38.823Z,24.15
2017-06-12T09:41:48.456Z,24.12
2017-06-12T09:42:58.086Z,24.15
2017-06-12T09:44:07.403Z,24.18
2017-06-12T09:45:17.669Z,24.1
2017-06-12T09:46:27.620Z,24.15
2017-06-12T09:47:37.882Z,24.12
2017-06-12T09:48:48.143Z,24.16
2017-06-12T09:49:58.404Z,24.21
2017-06-12T09:51:07.735Z,24.15
2017-06-12T09:52:17.684Z,24.16
2017-06-12T09:53:27.946Z,24.15
2017-06-12T09:54:38.213Z,24.2
2017-06-12T09:55:48.503Z,24.12
2017-06-12T09:56:58.760Z,24.09
2017-06-12T09:58:08.393Z,24.18
2017-06-12T09:59:18.034Z,24.16
2017-06-12T10:00:27.667Z,24.13
2017-06-12T10:01:37.304Z,24.09
2017-06-12T10:02:47.720Z,24.1
2017-06-12T10:03:57.983Z,24.16
2017-06-12T10:05:08.243Z,24.13
2017-06-12T10:06:17.879Z,24.1
2017-06-12T10:07:27.828Z,24.2
2017-06-12T10:08:37.772Z,24.06
2017-06-12T10:09:48.033Z,24.09
2017-06-12T10:10:57.982Z,24.08
2017-06-12T10:12:07.335Z,24.12
2017-06-12T10:13:17.288Z,24.06
2017-06-12T10:14:26.921Z,24.05
2017-06-12T10:15:36.556Z,24.09
2017-06-12T10:16:46.826Z,24.08
2017-06-12T10:17:57.092Z,24.09
2017-06-12T10:19:07.356Z,24.09
2017-06-12T10:20:17.304Z,24.12
2017-06-12T10:21:27.254Z,24.1
2017-06-12T10:22:37.199Z,24.12
2017-06-12T10:23:47.150Z,24.06
2017-06-12T10:24:57.415Z,24.18
2017-06-12T10:26:07.511Z,24.12
2017-06-12T10:27:17.457Z,24.05
2017-06-12T10:28:27.410Z,24.09
2017-06-12T10:29:37.678Z,24.09
2017-06-12T10:30:47.946Z,24.08
2017-06-12T10:31:57.890Z,24.1
2017-06-12T10:33:07.843Z,24.06
2017-06-12T10:34:17.481Z,24.06
2017-06-12T10:35:27.743Z,24.09
2017-06-12T10:36:38.011Z,24.1
2017-06-12T10:37:48.266Z,24.09
2017-06-12T10:38:58.532Z,24.08
2017-06-12T10:40:08.484Z,24.09
2017-06-12T10:41:18.112Z,24.1
2017-06-12T10:42:28.373Z,24.09
2017-06-12T10:43:38.325Z,24.09
2017-06-12T10:44:48.283Z,24.08
2017-06-12T10:45:58.231Z,24.06
2017-06-12T10:47:08.183Z,24.1
2017-06-12T10:48:18.124Z,24.12
2017-06-12T10:49:27.280Z,24.09
2017-06-12T10:50:36.917Z,24.1
2017-06-12T10:51:47.178Z,24.09
2017-06-12T10:52:57.129Z,24.09
2017-06-12T10:54:06.445Z,24.09
2017-06-12T10:55:16.395Z,24.06
2017-06-12T10:56:26.342Z,24.06
2017-06-12T10:57:35.980Z,24.1
2017-06-12T10:58:46.245Z,24.06
2017-06-12T10:59:56.512Z,24.09
2017-06-12T11:01:06.149Z,24.09
2017-06-12T11:02:16.420Z,24.06
2017-06-12T11:03:26.680Z,24.12
2017-06-12T11:04:36.631Z,24.06
2017-06-12T11:05:46.899Z,24.05
2017-06-12T11:06:56.686Z,24.08
2017-06-12T11:08:06.630Z,24.05
2017-06-12T11:09:16.579Z,24.08
2017-06-12T11:10:26.524Z,24.13
2017-06-12T11:11:36.787Z,24.09
2017-06-12T11:12:47.046Z,24.12
2017-06-12T11:13:56.680Z,24.1
2017-06-12T11:15:06.001Z,24.09
2017-06-12T11:16:15.952Z,24.06
2017-06-12T11:17:26.219Z,24.06
2017-06-12T11:18:36.488Z,24.08
2017-06-12T11:19:46.121Z,24.09
2017-06-12T11:20:56.065Z,24.15
2017-06-12T11:22:06.330Z,24.09
2017-06-12T11:23:16.590Z,24.12
2017-06-12T11:24:26.685Z,24.06
2017-06-12T11:25:36.311Z,24.09
2017-06-12T11:26:46.252Z,24.08
2017-06-12T11:27:56.526Z,24.09
2017-06-12T11:29:06.824Z,24.05
2017-06-12T11:30:17.095Z,24.08
2017-06-12T11:31:27.050Z,24.09
2017-06-12T11:32:36.371Z,24.12
2017-06-12T11:33:46.321Z,24.1
2017-06-12T11:34:56.281Z,24.13
2017-06-12T11:36:06.382Z,24.09
2017-06-12T11:37:16.016Z,24.13
2017-06-12T11:38:26.273Z,24.05
2017-06-12T11:39:36.546Z,24.1
2017-06-12T11:40:46.204Z,24.08
2017-06-12T11:41:56.175Z,24.09
2017-06-12T11:43:06.449Z,24.12
2017-06-12T11:44:16.711Z,24.05
2017-06-12T11:45:26.987Z,24.08
2017-06-12T11:46:36.623Z,24.05
2017-06-12T11:47:46.579Z,24.09
2017-06-12T11:48:56.530Z,24.06
2017-06-12T11:50:06.795Z,24.12
2017-06-12T11:51:15.799Z,24.21
2017-06-12T11:52:26.062Z,24.12
2017-06-12T11:53:36.481Z,24.1
2017-06-12T11:54:46.751Z,24.13
2017-06-12T11:55:56.701Z,24.12
2017-06-12T11:57:06.653Z,24.08
2017-06-12T11:58:16.607Z,24.02
2017-06-12T11:59:25.926Z,23.94
2017-06-12T12:00:35.263Z,23.94
2017-06-12T12:01:45.219Z,23.9
2017-06-12T12:02:55.171Z,23.78
2017-06-12T12:04:05.436Z,23.75
2017-06-12T12:05:15.388Z,23.72
2017-06-12T12:06:25.334Z,23.83
2017-06-12T12:07:34.973Z,23.78
2017-06-12T12:08:45.236Z,23.8
2017-06-12T12:09:54.867Z,23.69
2017-06-12T12:11:04.967Z,23.75
2017-06-12T12:12:15.234Z,23.58
2017-06-12T12:13:25.499Z,23.58
2017-06-12T12:14:35.453Z,23.53
2017-06-12T12:15:45.398Z,23.58
2017-06-12T12:16:55.348Z,23.58
2017-06-12T12:18:05.611Z,23.73
2017-06-12T12:19:15.240Z,23.76
2017-06-12T12:20:25.194Z,23.7
2017-06-12T12:21:35.486Z,23.58
2017-06-12T12:22:45.124Z,23.78
2017-06-12T12:23:55.084Z,23.8
2017-06-12T12:25:05.378Z,23.75
2017-06-12T12:26:15.013Z,23.78
2017-06-12T12:27:25.284Z,23.79
2017-06-12T12:28:35.698Z,23.83
2017-06-12T12:29:45.666Z,23.83
2017-06-12T12:30:55.304Z,23.76
2017-06-12T12:32:05.258Z,23.88
2017-06-12T12:33:15.206Z,23.8
2017-06-12T12:34:25.152Z,23.8
2017-06-12T12:35:35.099Z,23.83
2017-06-12T12:36:44.733Z,23.8
2017-06-12T12:37:55.008Z,23.85
2017-06-12T12:39:04.955Z,23.88
2017-06-12T12:40:14.902Z,23.9
2017-06-12T12:41:25.166Z,23.9
2017-06-12T12:42:35.434Z,23.93
2017-06-12T12:43:45.705Z,23.8
2017-06-12T12:44:55.685Z,23.87
2017-06-12T12:46:06.106Z,23.88
2017-06-12T12:47:16.051Z,23.78
2017-06-12T12:48:25.693Z,23.85
2017-06-12T12:49:35.640Z,23.87
2017-06-12T12:50:45.952Z,23.91
2017-06-12T12:51:55.900Z,23.84
2017-06-12T12:53:06.163Z,23.83
2017-06-12T12:54:16.117Z,23.91
2017-06-12T12:55:26.379Z,23.88
2017-06-12T12:56:36.011Z,23.94
2017-06-12T12:57:45.797Z,23.88
2017-06-12T12:58:55.744Z,23.88
2017-06-12T13:00:05.697Z,23.88
2017-06-12T13:01:15.959Z,23.91
2017-06-12T13:02:26.221Z,23.91
2017-06-12T13:03:36.176Z,23.8
2017-06-12T13:04:45.813Z,23.88
2017-06-12T13:05:56.073Z,23.93
2017-06-12T13:07:05.710Z,23.84
2017-06-12T13:08:15.352Z,23.9
2017-06-12T13:09:25.495Z,23.91
2017-06-12T13:10:35.784Z,23.95
2017-06-12T13:11:45.733Z,23.94
2017-06-12T13:12:55.374Z,23.83
2017-06-12T13:14:05.635Z,23.95
2017-06-12T13:15:14.958Z,23.91
2017-06-12T13:16:24.904Z,23.8
2017-06-12T13:17:34.856Z,23.88
2017-06-12T13:18:44.811Z,23.94
2017-06-12T13:19:54.480Z,23.9
2017-06-12T13:21:04.747Z,23.98
2017-06-12T13:22:14.700Z,23.94
2017-06-12T13:23:24.963Z,24
2017-06-12T13:24:35.230Z,23.95
2017-06-12T13:25:45.175Z,24.02
2017-06-12T13:26:54.964Z,23.9
2017-06-12T13:28:04.915Z,23.93
2017-06-12T13:29:14.863Z,23.9
2017-06-12T13:30:25.135Z,23.87
2017-06-12T13:31:35.095Z,23.9
2017-06-12T13:32:45.046Z,23.9
2017-06-12T13:33:55.339Z,23.91
2017-06-12T13:35:04.978Z,23.93
2017-06-12T13:36:14.614Z,23.91
2017-06-12T13:37:24.880Z,23.95
2017-06-12T13:38:34.977Z,23.93
2017-06-12T13:39:45.242Z,23.9
2017-06-12T13:40:55.501Z,23.85
2017-06-12T13:42:05.446Z,23.94
2017-06-12T13:43:15.084Z,23.91
2017-06-12T13:44:25.526Z,23.91
2017-06-12T13:45:35.479Z,23.97
2017-06-12T13:46:45.422Z,23.9
2017-06-12T13:47:55.681Z,23.93
2017-06-12T13:49:05.943Z,23.94
2017-06-12T13:50:15.889Z,24.03
2017-06-12T13:51:26.158Z,23.93
2017-06-12T13:52:36.107Z,23.94
2017-06-12T13:53:46.047Z,23.93
2017-06-12T13:54:55.991Z,23.98
2017-06-12T13:56:05.941Z,23.98
2017-06-12T13:57:16.205Z,23.94
2017-06-12T13:58:26.469Z,23.95
2017-06-12T13:59:36.105Z,23.93
2017-06-12T14:00:45.737Z,23.98
2017-06-12T14:01:56.155Z,23.94
2017-06-12T14:03:06.101Z,23.95
2017-06-12T14:04:16.365Z,23.98
2017-06-12T14:05:26.319Z,23.95
2017-06-12T14:06:36.580Z,24.02
2017-06-12T14:07:46.844Z,23.98
2017-06-12T14:08:56.792Z,23.95
2017-06-12T14:10:06.429Z,23.95
2017-06-12T14:11:16.372Z,23.9
2017-06-12T14:12:25.691Z,23.97
2017-06-12T14:13:35.674Z,23.97
2017-06-12T14:14:45.669Z,23.9
2017-06-12T14:15:55.635Z,23.91
2017-06-12T14:17:05.912Z,23.97
2017-06-12T14:18:15.863Z,23.93
2017-06-12T14:19:25.649Z,23.97
2017-06-12T14:20:34.971Z,23.93
2017-06-12T14:21:45.238Z,23.9
2017-06-12T14:22:55.191Z,23.88
2017-06-12T14:24:04.826Z,23.98
2017-06-12T14:25:14.776Z,23.88
2017-06-12T14:26:24.095Z,23.9
2017-06-12T14:27:33.737Z,23.88
2017-06-12T14:28:43.372Z,23.93
2017-06-12T14:29:53.328Z,23.97
2017-06-12T14:31:02.963Z,23.94
2017-06-12T14:32:12.913Z,23.95
2017-06-12T14:33:22.557Z,23.97
2017-06-12T14:34:32.816Z,23.88
2017-06-12T14:35:42.766Z,23.95
2017-06-12T14:36:53.192Z,23.94
2017-06-12T14:38:03.144Z,23.93
2017-06-12T14:39:12.794Z,23.91
2017-06-12T14:40:22.747Z,23.85
2017-06-12T14:41:32.689Z,23.93
2017-06-12T14:42:42.954Z,23.91
2017-06-12T14:43:52.906Z,23.93
2017-06-12T14:45:02.541Z,23.88
2017-06-12T14:46:12.493Z,23.91
2017-06-12T14:47:22.442Z,23.9
2017-06-12T14:48:32.709Z,23.91
2017-06-12T14:49:42.346Z,23.88
2017-06-12T14:50:51.977Z,23.88
2017-06-12T14:52:01.611Z,23.88
2017-06-12T14:53:11.876Z,23.88
2017-06-12T14:54:21.969Z,23.95
2017-06-12T14:55:31.921Z,23.88
2017-06-12T14:56:42.182Z,23.94
2017-06-12T14:57:52.131Z,23.91
2017-06-12T14:59:02.436Z,23.88
2017-06-12T15:00:12.853Z,23.97
2017-06-12T15:01:22.483Z,23.94
2017-06-12T15:02:32.754Z,23.97
2017-06-12T15:03:42.392Z,24.02
2017-06-12T15:04:52.663Z,24.05
2017-06-12T15:06:02.615Z,24.13